sensor_id;sensor_type;location;lat;lon;timestamp;pressure;altitude;pressure_sealevel;temperature;humidity
41624;BME280;27319;50.306;18.926;2023-12-14T00:03:55;97169.72;;;3.08;91.59
41624;BME280;27319;50.306;18.926;2023-12-14T00:07:56;97185.03;;;3.11;91.00
41624;BME280;27319;50.306;18.926;2023-12-14T00:11:57;97183.03;;;3.04;91.42
41624;BME280;27319;50.306;18.926;2023-12-14T00:15:57;97184.53;;;3.02;91.06
41624;BME280;27319;50.306;18.926;2023-12-14T00:19:58;97187.22;;;3.02;91.37
41624;BME280;27319;50.306;18.926;2023-12-14T00:23:59;97197.94;;;3.05;90.95
41624;BME280;27319;50.306;18.926;2023-12-14T00:28:00;97201.59;;;2.90;91.72
41624;BME280;27319;50.306;18.926;2023-12-14T00:32:01;97213.72;;;2.84;92.06
41624;BME280;27319;50.306;18.926;2023-12-14T00:36:01;97228.06;;;2.99;91.50
41624;BME280;27319;50.306;18.926;2023-12-14T00:40:02;97237.53;;;2.93;91.48
41624;BME280;27319;50.306;18.926;2023-12-14T00:44:03;97241.41;;;2.99;91.25
41624;BME280;27319;50.306;18.926;2023-12-14T00:48:04;97242.56;;;2.98;91.28
41624;BME280;27319;50.306;18.926;2023-12-14T00:52:05;97238.97;;;2.87;91.92
41624;BME280;27319;50.306;18.926;2023-12-14T00:56:07;97242.06;;;2.89;91.47
41624;BME280;27319;50.306;18.926;2023-12-14T01:00:02;97249.19;;;3.07;90.89
41624;BME280;27319;50.306;18.926;2023-12-14T01:03:24;97247.53;;;2.99;91.36
41624;BME280;27319;50.306;18.926;2023-12-14T01:07:05;97250.75;;;3.12;90.30
41624;BME280;27319;50.306;18.926;2023-12-14T01:10:06;97248.50;;;3.14;90.85
41624;BME280;27319;50.306;18.926;2023-12-14T01:13:27;97261.88;;;3.14;90.63
41624;BME280;27319;50.306;18.926;2023-12-14T01:17:28;97253.03;;;3.10;91.03
41624;BME280;27319;50.306;18.926;2023-12-14T01:21:29;97266.00;;;3.08;90.71
41624;BME280;27319;50.306;18.926;2023-12-14T01:25:30;97261.78;;;3.07;90.85
41624;BME280;27319;50.306;18.926;2023-12-14T01:29:30;97265.94;;;3.04;90.88
41624;BME280;27319;50.306;18.926;2023-12-14T01:33:31;97259.84;;;3.04;91.09
41624;BME280;27319;50.306;18.926;2023-12-14T01:37:31;97254.31;;;2.90;91.28
41624;BME280;27319;50.306;18.926;2023-12-14T01:41:32;97251.22;;;2.88;91.14
41624;BME280;27319;50.306;18.926;2023-12-14T01:45:33;97255.91;;;2.94;90.96
41624;BME280;27319;50.306;18.926;2023-12-14T01:49:34;97249.69;;;2.87;91.04
41624;BME280;27319;50.306;18.926;2023-12-14T01:53:35;97244.88;;;2.69;91.69
41624;BME280;27319;50.306;18.926;2023-12-14T01:57:35;97243.41;;;2.75;91.55
41624;BME280;27319;50.306;18.926;2023-12-14T02:04:20;97244.75;;;2.62;91.67
41624;BME280;27319;50.306;18.926;2023-12-14T02:08:21;97249.34;;;2.62;91.94
41624;BME280;27319;50.306;18.926;2023-12-14T02:12:22;97253.19;;;2.64;91.77
41624;BME280;27319;50.306;18.926;2023-12-14T02:16:23;97253.94;;;2.65;91.83
41624;BME280;27319;50.306;18.926;2023-12-14T02:20:24;97252.56;;;2.74;91.34
41624;BME280;27319;50.306;18.926;2023-12-14T02:24:28;97249.47;;;2.72;91.38
41624;BME280;27319;50.306;18.926;2023-12-14T02:28:28;97264.38;;;2.73;91.30
41624;BME280;27319;50.306;18.926;2023-12-14T02:32:29;97259.34;;;2.68;91.11
41624;BME280;27319;50.306;18.926;2023-12-14T02:36:30;97273.13;;;2.70;91.15
41624;BME280;27319;50.306;18.926;2023-12-14T02:40:31;97274.38;;;2.76;90.75
41624;BME280;27319;50.306;18.926;2023-12-14T02:44:32;97286.31;;;2.83;90.37
41624;BME280;27319;50.306;18.926;2023-12-14T02:48:32;97284.41;;;2.83;90.53
41624;BME280;27319;50.306;18.926;2023-12-14T02:52:33;97290.31;;;2.69;91.31
41624;BME280;27319;50.306;18.926;2023-12-14T02:56:34;97295.94;;;2.64;91.50
41624;BME280;27319;50.306;18.926;2023-12-14T03:00:35;97292.22;;;2.69;91.15
41624;BME280;27319;50.306;18.926;2023-12-14T03:04:10;97298.00;;;2.74;91.13
41624;BME280;27319;50.306;18.926;2023-12-14T03:08:11;97309.84;;;2.73;91.26
41624;BME280;27319;50.306;18.926;2023-12-14T03:12:12;97314.84;;;2.75;90.82
41624;BME280;27319;50.306;18.926;2023-12-14T03:16:13;97311.06;;;2.80;90.82
41624;BME280;27319;50.306;18.926;2023-12-14T03:20:13;97313.31;;;2.77;90.76
41624;BME280;27319;50.306;18.926;2023-12-14T03:24:14;97322.19;;;2.82;90.88
41624;BME280;27319;50.306;18.926;2023-12-14T03:28:15;97328.25;;;2.78;91.13
41624;BME280;27319;50.306;18.926;2023-12-14T03:32:16;97329.25;;;2.70;91.21
41624;BME280;27319;50.306;18.926;2023-12-14T03:36:16;97346.63;;;2.84;91.17
41624;BME280;27319;50.306;18.926;2023-12-14T03:40:17;97346.63;;;2.84;90.77
41624;BME280;27319;50.306;18.926;2023-12-14T03:44:18;97352.00;;;2.84;90.86
41624;BME280;27319;50.306;18.926;2023-12-14T03:48:19;97364.63;;;2.83;90.79
41624;BME280;27319;50.306;18.926;2023-12-14T03:52:00;97371.75;;;2.75;91.31
41624;BME280;27319;50.306;18.926;2023-12-14T03:56:01;97371.09;;;2.82;90.96
41624;BME280;27319;50.306;18.926;2023-12-14T04:00:01;97367.28;;;2.83;90.88
41624;BME280;27319;50.306;18.926;2023-12-14T04:04:02;97377.97;;;2.83;91.14
41624;BME280;27319;50.306;18.926;2023-12-14T04:08:03;97384.00;;;2.76;91.48
41624;BME280;27319;50.306;18.926;2023-12-14T04:12:04;97386.75;;;2.84;91.22
41624;BME280;27319;50.306;18.926;2023-12-14T04:16:05;97397.16;;;2.89;90.79
41624;BME280;27319;50.306;18.926;2023-12-14T04:19:46;97392.53;;;2.86;91.26
41624;BME280;27319;50.306;18.926;2023-12-14T04:23:06;97403.94;;;2.83;91.44
41624;BME280;27319;50.306;18.926;2023-12-14T04:27:07;97400.97;;;2.88;91.14
41624;BME280;27319;50.306;18.926;2023-12-14T04:31:08;97415.69;;;2.78;91.85
41624;BME280;27319;50.306;18.926;2023-12-14T04:35:09;97420.69;;;2.80;91.90
41624;BME280;27319;50.306;18.926;2023-12-14T04:39:10;97428.41;;;2.85;91.55
41624;BME280;27319;50.306;18.926;2023-12-14T04:43:10;97430.81;;;2.90;91.10
41624;BME280;27319;50.306;18.926;2023-12-14T04:47:11;97439.09;;;2.85;91.60
41624;BME280;27319;50.306;18.926;2023-12-14T04:51:12;97440.66;;;2.86;91.64
41624;BME280;27319;50.306;18.926;2023-12-14T04:55:13;97443.41;;;2.89;91.77
41624;BME280;27319;50.306;18.926;2023-12-14T04:59:14;97447.44;;;2.80;91.90
41624;BME280;27319;50.306;18.926;2023-12-14T05:02:55;97450.66;;;2.89;91.25
41624;BME280;27319;50.306;18.926;2023-12-14T05:06:15;97462.03;;;2.86;91.79
41624;BME280;27319;50.306;18.926;2023-12-14T05:10:16;97471.56;;;2.83;91.68
41624;BME280;27319;50.306;18.926;2023-12-14T05:14:17;97476.19;;;2.86;91.73
41624;BME280;27319;50.306;18.926;2023-12-14T05:18:18;97480.47;;;2.91;91.37
41624;BME280;27319;50.306;18.926;2023-12-14T05:22:18;97487.78;;;2.94;91.29
41624;BME280;27319;50.306;18.926;2023-12-14T05:26:19;97490.47;;;2.94;91.83
41624;BME280;27319;50.306;18.926;2023-12-14T05:30:00;97498.13;;;2.95;91.14
41624;BME280;27319;50.306;18.926;2023-12-14T05:33:21;97497.66;;;2.90;91.63
41624;BME280;27319;50.306;18.926;2023-12-14T05:36:36;97507.16;;;2.87;91.71
41624;BME280;27319;50.306;18.926;2023-12-14T05:39:37;97503.13;;;2.97;91.40
41624;BME280;27319;50.306;18.926;2023-12-14T05:43:01;97514.09;;;2.92;91.60
41624;BME280;27319;50.306;18.926;2023-12-14T05:46:39;97513.75;;;2.93;91.86
41624;BME280;27319;50.306;18.926;2023-12-14T05:50:40;97512.56;;;2.91;91.59
41624;BME280;27319;50.306;18.926;2023-12-14T05:54:41;97516.44;;;2.93;91.46
41624;BME280;27319;50.306;18.926;2023-12-14T05:58:22;97530.44;;;2.87;92.01
41624;BME280;27319;50.306;18.926;2023-12-14T06:01:23;97531.66;;;2.89;91.85
41624;BME280;27319;50.306;18.926;2023-12-14T06:04:44;97533.59;;;2.92;91.60
41624;BME280;27319;50.306;18.926;2023-12-14T06:08:45;97535.38;;;2.85;91.96
41624;BME280;27319;50.306;18.926;2023-12-14T06:12:45;97544.25;;;2.89;91.56
41624;BME280;27319;50.306;18.926;2023-12-14T06:16:46;97547.81;;;2.96;91.29
41624;BME280;27319;50.306;18.926;2023-12-14T06:20:47;97556.88;;;2.92;91.69
41624;BME280;27319;50.306;18.926;2023-12-14T06:24:07;97557.63;;;2.89;91.88
41624;BME280;27319;50.306;18.926;2023-12-14T06:28:08;97570.25;;;2.92;91.41
41624;BME280;27319;50.306;18.926;2023-12-14T06:31:49;97570.22;;;2.88;91.57
41624;BME280;27319;50.306;18.926;2023-12-14T06:34:51;97571.75;;;2.89;91.34
41624;BME280;27319;50.306;18.926;2023-12-14T06:37:53;97588.28;;;2.95;91.42
41624;BME280;27319;50.306;18.926;2023-12-14T06:40:54;97583.63;;;2.92;91.14
41624;BME280;27319;50.306;18.926;2023-12-14T06:44:15;97587.84;;;2.93;91.16
41624;BME280;27319;50.306;18.926;2023-12-14T06:48:15;97591.31;;;2.93;91.39
41624;BME280;27319;50.306;18.926;2023-12-14T06:51:56;97602.91;;;3.01;90.95
41624;BME280;27319;50.306;18.926;2023-12-14T06:55:37;97606.59;;;2.93;90.89
41624;BME280;27319;50.306;18.926;2023-12-14T06:59:01;97607.44;;;2.97;91.10
41624;BME280;27319;50.306;18.926;2023-12-14T07:03:01;97609.03;;;3.01;91.16
41624;BME280;27319;50.306;18.926;2023-12-14T07:06:37;97615.03;;;2.95;91.11
41624;BME280;27319;50.306;18.926;2023-12-14T07:09:38;97616.97;;;2.98;91.42
41624;BME280;27319;50.306;18.926;2023-12-14T07:12:40;97622.84;;;3.03;90.58
41624;BME280;27319;50.306;18.926;2023-12-14T07:16:00;97621.22;;;2.99;90.75
41624;BME280;27319;50.306;18.926;2023-12-14T07:20:01;97626.66;;;3.02;91.19
41624;BME280;27319;50.306;18.926;2023-12-14T07:23:42;97628.97;;;3.04;90.98
41624;BME280;27319;50.306;18.926;2023-12-14T07:26:46;97641.19;;;3.05;90.74
41624;BME280;27319;50.306;18.926;2023-12-14T07:29:51;97644.94;;;3.00;90.83
41624;BME280;27319;50.306;18.926;2023-12-14T07:32:52;97653.44;;;3.06;90.90
41624;BME280;27319;50.306;18.926;2023-12-14T07:35:53;97659.53;;;3.03;90.55
41624;BME280;27319;50.306;18.926;2023-12-14T07:39:13;97673.28;;;3.05;90.63
41624;BME280;27319;50.306;18.926;2023-12-14T07:43:14;97667.94;;;3.05;90.60
41624;BME280;27319;50.306;18.926;2023-12-14T07:46:59;97672.59;;;3.08;90.55
41624;BME280;27319;50.306;18.926;2023-12-14T07:50:20;97686.03;;;3.11;90.44
41624;BME280;27319;50.306;18.926;2023-12-14T07:53:23;97689.78;;;3.07;90.54
41624;BME280;27319;50.306;18.926;2023-12-14T07:56:44;97701.59;;;3.06;90.75
41624;BME280;27319;50.306;18.926;2023-12-14T08:00:44;97700.19;;;3.12;90.56
41624;BME280;27319;50.306;18.926;2023-12-14T08:04:45;97711.66;;;3.12;90.31
41624;BME280;27319;50.306;18.926;2023-12-14T08:08:26;97711.75;;;3.16;90.24
41624;BME280;27319;50.306;18.926;2023-12-14T08:11:27;97719.63;;;3.09;90.28
41624;BME280;27319;50.306;18.926;2023-12-14T08:14:28;97720.06;;;3.11;90.16
41624;BME280;27319;50.306;18.926;2023-12-14T08:17:29;97727.72;;;3.12;90.01
41624;BME280;27319;50.306;18.926;2023-12-14T08:20:30;97729.91;;;3.07;90.82
41624;BME280;27319;50.306;18.926;2023-12-14T08:23:30;97731.66;;;3.18;90.11
41624;BME280;27319;50.306;18.926;2023-12-14T08:26:51;97732.28;;;3.12;90.61
41624;BME280;27319;50.306;18.926;2023-12-14T08:29:53;97734.72;;;3.17;90.66
41624;BME280;27319;50.306;18.926;2023-12-14T08:32:54;97737.78;;;3.19;90.47
41624;BME280;27319;50.306;18.926;2023-12-14T08:35:55;97743.13;;;3.19;90.46
41624;BME280;27319;50.306;18.926;2023-12-14T08:38:56;97741.66;;;3.22;90.02
41624;BME280;27319;50.306;18.926;2023-12-14T08:41:57;97742.59;;;3.29;89.87
41624;BME280;27319;50.306;18.926;2023-12-14T08:44:58;97752.31;;;3.18;90.50
41624;BME280;27319;50.306;18.926;2023-12-14T08:47:58;97753.16;;;3.22;90.21
41624;BME280;27319;50.306;18.926;2023-12-14T08:51:19;97765.47;;;3.27;89.76
41624;BME280;27319;50.306;18.926;2023-12-14T08:54:26;97773.22;;;3.32;89.38
41624;BME280;27319;50.306;18.926;2023-12-14T08:57:27;97773.59;;;3.30;89.65
41624;BME280;27319;50.306;18.926;2023-12-14T09:00:28;97784.53;;;3.25;89.75
41624;BME280;27319;50.306;18.926;2023-12-14T09:03:29;97785.75;;;3.28;89.98
41624;BME280;27319;50.306;18.926;2023-12-14T09:06:30;97791.59;;;3.33;89.61
41624;BME280;27319;50.306;18.926;2023-12-14T09:09:31;97793.88;;;3.31;89.76
41624;BME280;27319;50.306;18.926;2023-12-14T09:12:53;97804.97;;;3.33;89.95
41624;BME280;27319;50.306;18.926;2023-12-14T09:16:13;97809.94;;;3.31;89.52
41624;BME280;27319;50.306;18.926;2023-12-14T09:19:14;97808.94;;;3.39;89.04
41624;BME280;27319;50.306;18.926;2023-12-14T09:22:15;97812.22;;;3.33;89.48
41624;BME280;27319;50.306;18.926;2023-12-14T09:25:16;97818.50;;;3.40;89.03
41624;BME280;27319;50.306;18.926;2023-12-14T09:28:17;97821.69;;;3.46;88.75
41624;BME280;27319;50.306;18.926;2023-12-14T09:31:18;97828.03;;;3.38;89.24
41624;BME280;27319;50.306;18.926;2023-12-14T09:34:18;97822.94;;;3.33;89.69
41624;BME280;27319;50.306;18.926;2023-12-14T09:37:19;97825.75;;;3.40;89.50
41624;BME280;27319;50.306;18.926;2023-12-14T09:40:20;97829.00;;;3.30;90.33
41624;BME280;27319;50.306;18.926;2023-12-14T09:43:22;97826.91;;;3.39;89.43
41624;BME280;27319;50.306;18.926;2023-12-14T09:46:25;97829.22;;;3.40;89.30
41624;BME280;27319;50.306;18.926;2023-12-14T09:49:26;97824.78;;;3.48;88.97
41624;BME280;27319;50.306;18.926;2023-12-14T09:52:49;97838.38;;;3.39;89.61
41624;BME280;27319;50.306;18.926;2023-12-14T09:56:26;97838.38;;;3.39;89.40
41624;BME280;27319;50.306;18.926;2023-12-14T09:59:26;97837.34;;;3.44;88.90
41624;BME280;27319;50.306;18.926;2023-12-14T10:02:27;97846.13;;;3.44;89.17
41624;BME280;27319;50.306;18.926;2023-12-14T10:05:28;97851.06;;;3.42;88.97
41624;BME280;27319;50.306;18.926;2023-12-14T10:08:53;97846.19;;;3.48;88.89
41624;BME280;27319;50.306;18.926;2023-12-14T10:12:03;97857.88;;;3.40;89.41
41624;BME280;27319;50.306;18.926;2023-12-14T10:15:05;97849.66;;;3.48;88.76
41624;BME280;27319;50.306;18.926;2023-12-14T10:18:06;97853.53;;;3.51;88.91
41624;BME280;27319;50.306;18.926;2023-12-14T10:21:07;97854.03;;;3.56;88.54
41624;BME280;27319;50.306;18.926;2023-12-14T10:24:08;97854.81;;;3.57;88.36
41624;BME280;27319;50.306;18.926;2023-12-14T10:27:25;97851.78;;;3.59;88.95
41624;BME280;27319;50.306;18.926;2023-12-14T10:30:45;97854.72;;;3.53;88.68
41624;BME280;27319;50.306;18.926;2023-12-14T10:34:46;97850.94;;;3.54;88.84
41624;BME280;27319;50.306;18.926;2023-12-14T10:37:49;97850.94;;;3.54;89.15
41624;BME280;27319;50.306;18.926;2023-12-14T10:40:52;97847.91;;;3.56;89.27
41624;BME280;27319;50.306;18.926;2023-12-14T10:43:55;97857.84;;;3.55;88.70
41624;BME280;27319;50.306;18.926;2023-12-14T10:47:16;97872.34;;;3.54;88.97
41624;BME280;27319;50.306;18.926;2023-12-14T10:50:35;97875.78;;;3.55;89.19
41624;BME280;27319;50.306;18.926;2023-12-14T10:53:37;97880.66;;;3.49;89.26
41624;BME280;27319;50.306;18.926;2023-12-14T10:56:38;97878.56;;;3.59;89.18
41624;BME280;27319;50.306;18.926;2023-12-14T10:59:42;97887.72;;;3.58;89.02
41624;BME280;27319;50.306;18.926;2023-12-14T11:03:03;97887.56;;;3.50;89.51
41624;BME280;27319;50.306;18.926;2023-12-14T11:06:43;97896.03;;;3.52;89.25
41624;BME280;27319;50.306;18.926;2023-12-14T11:09:55;97901.44;;;3.56;89.32
41624;BME280;27319;50.306;18.926;2023-12-14T11:13:17;97905.75;;;3.61;88.82
41624;BME280;27319;50.306;18.926;2023-12-14T11:16:22;97904.47;;;3.54;88.93
41624;BME280;27319;50.306;18.926;2023-12-14T11:22:26;97906.66;;;3.49;89.42
41624;BME280;27319;50.306;18.926;2023-12-14T11:25:28;97916.72;;;3.55;89.00
41624;BME280;27319;50.306;18.926;2023-12-14T11:28:30;97917.56;;;3.60;89.13
41624;BME280;27319;50.306;18.926;2023-12-14T11:31:31;97922.88;;;3.56;89.59
41624;BME280;27319;50.306;18.926;2023-12-14T11:34:33;97926.44;;;3.44;89.89
41624;BME280;27319;50.306;18.926;2023-12-14T11:37:34;97916.31;;;3.53;89.61
41624;BME280;27319;50.306;18.926;2023-12-14T11:40:36;97923.22;;;3.54;89.61
41624;BME280;27319;50.306;18.926;2023-12-14T11:43:41;97916.81;;;3.59;89.35
41624;BME280;27319;50.306;18.926;2023-12-14T11:46:43;97915.34;;;3.62;88.84
41624;BME280;27319;50.306;18.926;2023-12-14T11:49:44;97929.94;;;3.64;89.22
41624;BME280;27319;50.306;18.926;2023-12-14T11:52:45;97931.25;;;3.54;89.81
41624;BME280;27319;50.306;18.926;2023-12-14T11:56:02;97937.47;;;3.59;89.94
41624;BME280;27319;50.306;18.926;2023-12-14T11:59:04;97938.16;;;3.55;90.07
41624;BME280;27319;50.306;18.926;2023-12-14T12:02:06;97924.50;;;3.61;89.69
41624;BME280;27319;50.306;18.926;2023-12-14T12:05:07;97927.53;;;3.59;89.76
41624;BME280;27319;50.306;18.926;2023-12-14T12:08:09;97930.47;;;3.54;90.16
41624;BME280;27319;50.306;18.926;2023-12-14T12:11:09;97941.09;;;3.50;90.49
41624;BME280;27319;50.306;18.926;2023-12-14T12:14:11;97940.50;;;3.57;89.84
41624;BME280;27319;50.306;18.926;2023-12-14T12:17:11;97945.22;;;3.64;89.43
41624;BME280;27319;50.306;18.926;2023-12-14T12:20:12;97953.53;;;3.59;89.65
41624;BME280;27319;50.306;18.926;2023-12-14T12:23:13;97953.44;;;3.55;89.80
41624;BME280;27319;50.306;18.926;2023-12-14T12:26:14;97957.34;;;3.58;89.48
41624;BME280;27319;50.306;18.926;2023-12-14T12:29:15;97956.22;;;3.59;89.56
41624;BME280;27319;50.306;18.926;2023-12-14T12:32:16;97963.97;;;3.64;89.52
41624;BME280;27319;50.306;18.926;2023-12-14T12:35:20;97965.94;;;3.67;88.90
41624;BME280;27319;50.306;18.926;2023-12-14T12:38:41;97962.41;;;3.63;89.14
41624;BME280;27319;50.306;18.926;2023-12-14T12:42:22;97960.56;;;3.67;89.44
41624;BME280;27319;50.306;18.926;2023-12-14T12:45:23;97976.06;;;3.73;88.92
41624;BME280;27319;50.306;18.926;2023-12-14T12:48:26;97978.91;;;3.65;89.04
41624;BME280;27319;50.306;18.926;2023-12-14T12:51:27;97975.97;;;3.70;89.06
41624;BME280;27319;50.306;18.926;2023-12-14T12:54:31;97986.59;;;3.66;88.85
41624;BME280;27319;50.306;18.926;2023-12-14T12:57:32;97982.72;;;3.64;88.91
41624;BME280;27319;50.306;18.926;2023-12-14T13:00:33;97993.69;;;3.59;88.88
41624;BME280;27319;50.306;18.926;2023-12-14T13:03:56;98001.63;;;3.55;89.20
41624;BME280;27319;50.306;18.926;2023-12-14T13:07:06;98000.56;;;3.60;88.56
41624;BME280;27319;50.306;18.926;2023-12-14T13:10:08;98007.78;;;3.55;89.10
41624;BME280;27319;50.306;18.926;2023-12-14T13:13:11;98013.22;;;3.59;89.18
41624;BME280;27319;50.306;18.926;2023-12-14T13:16:13;98021.31;;;3.63;88.98
41624;BME280;27319;50.306;18.926;2023-12-14T13:19:15;98009.38;;;3.60;89.22
41624;BME280;27319;50.306;18.926;2023-12-14T13:22:16;98026.94;;;3.58;89.68
41624;BME280;27319;50.306;18.926;2023-12-14T13:25:17;98034.97;;;3.58;89.42
41624;BME280;27319;50.306;18.926;2023-12-14T13:28:18;98034.53;;;3.55;89.37
41624;BME280;27319;50.306;18.926;2023-12-14T13:31:38;98048.72;;;3.56;89.64
41624;BME280;27319;50.306;18.926;2023-12-14T13:34:39;98060.53;;;3.55;89.61
41624;BME280;27319;50.306;18.926;2023-12-14T13:37:40;98062.44;;;3.54;89.69
41624;BME280;27319;50.306;18.926;2023-12-14T13:40:41;98066.66;;;3.55;89.28
41624;BME280;27319;50.306;18.926;2023-12-14T13:43:43;98070.47;;;3.54;89.04
41624;BME280;27319;50.306;18.926;2023-12-14T13:46:44;98078.09;;;3.52;89.01
41624;BME280;27319;50.306;18.926;2023-12-14T13:49:45;98077.31;;;3.52;89.09
41624;BME280;27319;50.306;18.926;2023-12-14T13:52:46;98081.09;;;3.51;88.92
41624;BME280;27319;50.306;18.926;2023-12-14T13:55:48;98081.44;;;3.49;89.13
41624;BME280;27319;50.306;18.926;2023-12-14T13:59:31;98101.03;;;3.53;89.29
41624;BME280;27319;50.306;18.926;2023-12-14T14:03:33;98106.66;;;3.48;89.12
41624;BME280;27319;50.306;18.926;2023-12-14T14:07:33;98110.44;;;3.47;89.90
41624;BME280;27319;50.306;18.926;2023-12-14T14:11:33;98119.53;;;3.43;90.36
41624;BME280;27319;50.306;18.926;2023-12-14T14:15:15;98126.19;;;3.49;90.21
41624;BME280;27319;50.306;18.926;2023-12-14T14:18:15;98122.09;;;3.39;90.76
41624;BME280;27319;50.306;18.926;2023-12-14T14:21:16;98122.28;;;3.46;90.21
41624;BME280;27319;50.306;18.926;2023-12-14T14:24:17;98129.00;;;3.40;90.75
41624;BME280;27319;50.306;18.926;2023-12-14T14:27:18;98135.41;;;3.36;90.61
41624;BME280;27319;50.306;18.926;2023-12-14T14:30:18;98146.00;;;3.32;91.08
41624;BME280;27319;50.306;18.926;2023-12-14T14:33:20;98147.56;;;3.33;91.05
41624;BME280;27319;50.306;18.926;2023-12-14T14:36:20;98161.84;;;3.37;90.69
41624;BME280;27319;50.306;18.926;2023-12-14T14:39:22;98157.16;;;3.34;90.77
41624;BME280;27319;50.306;18.926;2023-12-14T14:42:23;98164.06;;;3.35;90.90
41624;BME280;27319;50.306;18.926;2023-12-14T14:45:24;98169.75;;;3.34;90.92
41624;BME280;27319;50.306;18.926;2023-12-14T14:48:24;98174.69;;;3.32;90.56
41624;BME280;27319;50.306;18.926;2023-12-14T14:51:26;98174.78;;;3.35;90.75
41624;BME280;27319;50.306;18.926;2023-12-14T14:54:27;98173.66;;;3.36;90.91
41624;BME280;27319;50.306;18.926;2023-12-14T14:57:28;98182.03;;;3.35;90.71
41624;BME280;27319;50.306;18.926;2023-12-14T15:00:29;98186.78;;;3.41;90.16
41624;BME280;27319;50.306;18.926;2023-12-14T15:03:30;98184.09;;;3.41;90.27
41624;BME280;27319;50.306;18.926;2023-12-14T15:06:31;98185.47;;;3.35;90.79
41624;BME280;27319;50.306;18.926;2023-12-14T15:09:32;98192.38;;;3.36;90.84
41624;BME280;27319;50.306;18.926;2023-12-14T15:12:33;98190.06;;;3.35;90.85
41624;BME280;27319;50.306;18.926;2023-12-14T15:15:35;98196.28;;;3.39;90.74
41624;BME280;27319;50.306;18.926;2023-12-14T15:18:36;98199.53;;;3.32;90.83
41624;BME280;27319;50.306;18.926;2023-12-14T15:21:42;98200.88;;;3.38;90.49
41624;BME280;27319;50.306;18.926;2023-12-14T15:24:42;98212.25;;;3.35;90.50
41624;BME280;27319;50.306;18.926;2023-12-14T15:27:43;98220.28;;;3.35;90.42
41624;BME280;27319;50.306;18.926;2023-12-14T15:31:04;98226.75;;;3.34;90.35
41624;BME280;27319;50.306;18.926;2023-12-14T15:34:06;98228.88;;;3.29;90.48
41624;BME280;27319;50.306;18.926;2023-12-14T15:37:27;98230.66;;;3.37;90.41
41624;BME280;27319;50.306;18.926;2023-12-14T15:41:28;98244.28;;;3.32;90.88
41624;BME280;27319;50.306;18.926;2023-12-14T15:44:49;98239.69;;;3.32;90.80
41624;BME280;27319;50.306;18.926;2023-12-14T15:47:50;98243.50;;;3.31;90.38
41624;BME280;27319;50.306;18.926;2023-12-14T15:50:51;98238.44;;;3.42;89.79
41624;BME280;27319;50.306;18.926;2023-12-14T15:54:12;98245.59;;;3.38;89.59
41624;BME280;27319;50.306;18.926;2023-12-14T15:57:53;98252.41;;;3.35;90.18
41624;BME280;27319;50.306;18.926;2023-12-14T16:00:53;98254.41;;;3.38;90.16
41624;BME280;27319;50.306;18.926;2023-12-14T16:04:14;98265.88;;;3.39;89.84
41624;BME280;27319;50.306;18.926;2023-12-14T16:07:57;98269.31;;;3.39;90.05
41624;BME280;27319;50.306;18.926;2023-12-14T16:10:58;98277.25;;;3.36;90.30
41624;BME280;27319;50.306;18.926;2023-12-14T16:13:59;98282.16;;;3.34;90.34
41624;BME280;27319;50.306;18.926;2023-12-14T16:16:59;98286.97;;;3.28;90.61
41624;BME280;27319;50.306;18.926;2023-12-14T16:20:01;98287.84;;;3.32;90.19
41624;BME280;27319;50.306;18.926;2023-12-14T16:23:01;98288.75;;;3.36;90.08
41624;BME280;27319;50.306;18.926;2023-12-14T16:26:07;98295.66;;;3.37;90.08
41624;BME280;27319;50.306;18.926;2023-12-14T16:29:09;98305.72;;;3.28;90.55
41624;BME280;27319;50.306;18.926;2023-12-14T16:32:30;98308.72;;;3.39;90.00
41624;BME280;27319;50.306;18.926;2023-12-14T16:35:51;98320.88;;;3.36;90.24
41624;BME280;27319;50.306;18.926;2023-12-14T16:39:11;98325.31;;;3.32;90.66
41624;BME280;27319;50.306;18.926;2023-12-14T16:42:53;98325.00;;;3.34;89.86
41624;BME280;27319;50.306;18.926;2023-12-14T16:46:54;98331.25;;;3.38;90.19
41624;BME280;27319;50.306;18.926;2023-12-14T16:50:54;98342.16;;;3.33;89.72
41624;BME280;27319;50.306;18.926;2023-12-14T16:54:55;98346.66;;;3.29;90.45
41624;BME280;27319;50.306;18.926;2023-12-14T16:58:36;98346.00;;;3.32;90.43
41624;BME280;27319;50.306;18.926;2023-12-14T17:01:58;98357.34;;;3.29;90.37
41624;BME280;27319;50.306;18.926;2023-12-14T17:05:59;98362.03;;;3.32;90.07
41624;BME280;27319;50.306;18.926;2023-12-14T17:10:00;98374.28;;;3.33;89.86
41624;BME280;27319;50.306;18.926;2023-12-14T17:14:01;98382.00;;;3.34;90.00
41624;BME280;27319;50.306;18.926;2023-12-14T17:18:00;98379.22;;;3.31;90.30
41624;BME280;27319;50.306;18.926;2023-12-14T17:24:23;98395.81;;;3.36;89.63
41624;BME280;27319;50.306;18.926;2023-12-14T17:27:24;98390.47;;;3.36;90.08
41624;BME280;27319;50.306;18.926;2023-12-14T17:30:26;98388.69;;;3.28;90.34
41624;BME280;27319;50.306;18.926;2023-12-14T17:33:27;98397.38;;;3.37;89.67
41624;BME280;27319;50.306;18.926;2023-12-14T17:36:28;98404.19;;;3.35;89.97
41624;BME280;27319;50.306;18.926;2023-12-14T17:39:28;98408.75;;;3.34;89.96
41624;BME280;27319;50.306;18.926;2023-12-14T17:42:30;98416.13;;;3.25;90.31
41624;BME280;27319;50.306;18.926;2023-12-14T17:45:30;98420.03;;;3.28;90.38
41624;BME280;27319;50.306;18.926;2023-12-14T17:48:32;98428.38;;;3.26;90.65
41624;BME280;27319;50.306;18.926;2023-12-14T17:51:53;98426.72;;;3.22;90.78
41624;BME280;27319;50.306;18.926;2023-12-14T17:55:34;98433.50;;;3.19;90.76
41624;BME280;27319;50.306;18.926;2023-12-14T17:58:34;98436.66;;;3.21;90.77
41624;BME280;27319;50.306;18.926;2023-12-14T18:01:42;98442.22;;;3.28;90.19
41624;BME280;27319;50.306;18.926;2023-12-14T18:04:43;98435.31;;;3.27;90.03
41624;BME280;27319;50.306;18.926;2023-12-14T18:07:44;98443.88;;;3.21;90.38
41624;BME280;27319;50.306;18.926;2023-12-14T18:10:45;98449.47;;;3.15;90.40
41624;BME280;27319;50.306;18.926;2023-12-14T18:13:46;98459.63;;;3.22;89.80
41624;BME280;27319;50.306;18.926;2023-12-14T18:17:07;98466.31;;;3.16;90.28